Time;durP1;ratioP1;P1;durP2;ratioP2;P2;SDS_P1;SDS_P2;PMS_P1;PMS_P2;Temp;Humidity;BMP_temperature;BMP_pressure;BME280_temperature;BME280_humidity;BME280_pressure;Samples;Min_cycle;Max_cycle;Signal;HPM_P1;HPM_P2
2023/03/30 00:02:08;;;;;;;7.18;3.60;;;;;;;8.89;62.61;97647.44;9764330;30;20520;-76
2023/03/30 00:07:29;;;;;;;7.15;3.45;;;;;;;8.91;62.97;97630.16;9764025;30;20061;-76
2023/03/30 00:12:50;;;;;;;9.82;4.05;;;;;;;8.93;62.87;97635.84;9763806;30;20056;-76
2023/03/30 00:18:11;;;;;;;7.13;3.95;;;;;;;8.97;63.57;97636.13;9775832;30;20049;-77
2023/03/30 00:23:32;;;;;;;9.30;4.28;;;;;;;8.98;63.94;97643.19;9751110;30;20088;-76
2023/03/30 00:28:53;;;;;;;7.90;4.38;;;;;;;8.96;63.86;97634.69;9763544;30;20088;-76
2023/03/30 00:34:14;;;;;;;9.88;4.40;;;;;;;8.83;64.70;97622.69;9750766;30;20045;-76
2023/03/30 00:39:35;;;;;;;7.95;4.43;;;;;;;8.80;65.77;97642.59;9762357;30;20520;-76
2023/03/30 00:45:35;;;;;;;7.72;4.10;;;;;;;8.72;66.40;97611.41;9762577;30;20512;-76
2023/03/30 00:50:59;;;;;;;6.88;3.95;;;;;;;8.63;66.71;97615.66;9759114;30;20081;-77
2023/03/30 00:56:22;;;;;;;9.32;4.10;;;;;;;8.62;67.00;97619.75;9750051;30;20065;-76
2023/03/30 01:01:48;;;;;;;8.63;4.45;;;;;;;8.65;68.26;97618.56;9762232;30;20383;-76
2023/03/30 01:07:11;;;;;;;6.43;3.53;;;;;;;8.67;67.90;97610.38;9762390;30;20088;-76
2023/03/30 01:12:33;;;;;;;9.43;3.72;;;;;;;8.72;67.89;97603.78;9761529;30;20045;-76
2023/03/30 01:18:14;;;;;;;6.45;3.33;;;;;;;8.71;68.71;97593.25;9773754;30;20103;-76
2023/03/30 01:23:52;;;;;;;5.97;3.50;;;;;;;8.69;68.61;97591.06;9773480;30;20110;-77
2023/03/30 01:29:12;;;;;;;5.00;3.17;;;;;;;8.71;68.33;97557.81;9773823;30;20052;-76
2023/03/30 01:35:15;;;;;;;6.18;3.40;;;;;;;8.67;70.12;97568.63;9773514;30;20080;-76
2023/03/30 01:41:01;;;;;;;8.15;4.13;;;;;;;8.55;69.79;97548.28;9762044;30;20076;-76
2023/03/30 01:46:32;;;;;;;7.05;3.97;;;;;;;8.50;70.74;97541.72;9760455;30;20065;-76
2023/03/30 01:52:15;;;;;;;6.93;3.20;;;;;;;8.50;70.19;97543.75;9760892;30;20074;-76
2023/03/30 01:57:56;;;;;;;8.15;4.07;;;;;;;8.38;69.93;97540.81;9761111;30;20466;-76
2023/03/30 02:03:20;;;;;;;6.68;3.60;;;;;;;8.35;70.98;97544.03;9761302;30;20128;-76
2023/03/30 02:08:41;;;;;;;8.85;3.50;;;;;;;8.29;72.60;97527.59;9746775;30;20072;-76
2023/03/30 02:14:03;;;;;;;6.28;3.22;;;;;;;8.27;71.28;97533.75;9757822;30;20053;-76
2023/03/30 02:19:24;;;;;;;7.25;3.03;;;;;;;8.27;72.01;97542.09;9763768;30;20060;-76
2023/03/30 02:24:47;;;;;;;6.13;3.42;;;;;;;8.35;72.20;97560.72;9759896;30;20081;-76
2023/03/30 02:30:10;;;;;;;5.72;3.40;;;;;;;8.38;72.76;97538.03;9748305;30;20485;-76
2023/03/30 02:35:55;;;;;;;7.72;3.20;;;;;;;8.17;75.04;97466.28;9759843;30;20064;-76
2023/03/30 02:42:01;;;;;;;6.93;3.50;;;;;;;7.90;76.96;97457.34;9772078;30;20541;-76
2023/03/30 02:47:41;;;;;;;5.90;3.40;;;;;;;7.94;75.47;97488.25;9756401;30;20064;-76
2023/03/30 02:53:32;;;;;;;6.07;3.45;;;;;;;7.94;77.20;97477.13;9771034;30;20065;-76
2023/03/30 02:59:13;;;;;;;5.80;3.35;;;;;;;7.83;77.10;97461.75;9759497;30;20045;-77
2023/03/30 03:04:34;;;;;;;7.63;3.28;;;;;;;7.80;76.78;97445.50;9764584;30;20072;-76
2023/03/30 03:10:21;;;;;;;6.13;3.28;;;;;;;7.73;76.99;97447.84;9768437;30;20059;-76
2023/03/30 03:15:55;;;;;;;7.68;4.00;;;;;;;7.65;77.26;97433.38;9767852;30;20081;-76
2023/03/30 03:21:17;;;;;;;5.55;3.40;;;;;;;7.61;76.85;97415.66;9790103;30;20065;-76
2023/03/30 03:26:38;;;;;;;6.95;3.75;;;;;;;7.56;78.73;97417.41;9788997;30;20052;-76
2023/03/30 03:31:59;;;;;;;8.38;3.83;;;;;;;7.48;79.61;97394.59;9779595;30;20063;-76
2023/03/30 03:37:27;;;;;;;5.82;3.45;;;;;;;7.54;79.39;97397.81;9776014;30;20071;-76
2023/03/30 03:42:48;;;;;;;6.72;3.67;;;;;;;7.52;80.02;97388.59;9785488;30;20056;-76
2023/03/30 03:48:09;;;;;;;7.78;4.07;;;;;;;7.46;79.77;97391.66;9768689;30;20103;-76
2023/03/30 03:53:41;;;;;;;7.57;3.60;;;;;;;7.44;79.88;97380.41;9754218;30;20069;-76
2023/03/30 03:59:06;;;;;;;7.13;4.15;;;;;;;7.42;79.44;97380.25;9767732;30;20444;-76
2023/03/30 04:04:27;;;;;;;8.68;4.18;;;;;;;7.41;80.07;97379.53;9763714;30;20480;-76
2023/03/30 04:09:48;;;;;;;8.40;3.65;;;;;;;7.39;80.22;97395.31;9764353;30;20129;-76
2023/03/30 04:15:23;;;;;;;7.03;3.80;;;;;;;7.36;81.58;97369.44;9761303;30;20059;-76
2023/03/30 04:21:04;;;;;;;6.68;4.30;;;;;;;7.28;81.55;97368.84;9790087;30;20080;-76
2023/03/30 04:26:47;;;;;;;7.47;3.70;;;;;;;7.31;81.27;97366.94;9789900;30;20074;-76
2023/03/30 04:32:33;;;;;;;7.57;4.05;;;;;;;7.38;80.72;97363.31;9790423;30;20488;-76
2023/03/30 04:38:26;;;;;;;7.13;4.07;;;;;;;7.39;81.99;97356.44;9784403;30;20081;-75
2023/03/30 04:44:05;;;;;;;7.93;4.18;;;;;;;7.43;81.08;97362.28;9785187;30;20048;-75
2023/03/30 04:49:39;;;;;;;8.80;3.50;;;;;;;7.55;80.87;97362.44;9787604;30;20080;-75
2023/03/30 04:55:29;;;;;;;9.77;3.83;;;;;;;7.56;80.93;97356.31;9794047;30;20091;-76
2023/03/30 05:00:51;;;;;;;9.60;3.97;;;;;;;7.59;80.46;97349.56;9785240;30;20052;-76
2023/03/30 05:06:38;;;;;;;9.50;4.65;;;;;;;7.60;80.81;97350.31;9782949;30;20095;-76
2023/03/30 05:12:05;;;;;;;6.75;4.40;;;;;;;7.70;80.70;97346.19;9783865;30;20411;-76
2023/03/30 05:17:47;;;;;;;7.25;3.90;;;;;;;7.81;80.76;97341.38;9789896;30;20498;-76
2023/03/30 05:23:13;;;;;;;8.27;4.80;;;;;;;7.88;80.60;97346.06;9772843;30;20049;-76
2023/03/30 05:28:55;;;;;;;7.40;4.57;;;;;;;7.93;80.17;97350.59;9777567;30;20056;-76
2023/03/30 05:34:32;;;;;;;7.45;3.80;;;;;;;8.04;80.67;97361.09;9786301;30;20040;-76
2023/03/30 05:40:08;;;;;;;7.55;4.25;;;;;;;8.25;80.72;97366.03;9778863;30;20110;-75
2023/03/30 05:45:55;;;;;;;8.50;4.40;;;;;;;8.67;80.13;97351.59;9763993;30;20115;-76
2023/03/30 05:57:56;;;;;;;5.63;3.25;;;;;;;12.77;81.67;97363.81;10891753;24;20125;-77
2023/03/30 06:03:26;;;;;;;9.23;3.90;;;;;;;14.27;73.96;97364.25;9775576;30;20049;-77
2023/03/30 06:08:48;;;;;;;7.35;3.97;;;;;;;14.57;69.58;97362.91;9747325;30;20060;-77
2023/03/30 06:14:13;;;;;;;9.20;3.80;;;;;;;13.45;69.97;97368.00;9748211;30;20076;-77
2023/03/30 06:25:56;;;;;;;8.98;4.05;;;;;;;13.36;71.58;97394.91;9816305;24;20064;-79
2023/03/30 06:31:23;;;;;;;8.20;3.72;;;;;;;17.26;69.56;97402.00;9783050;30;20118;-79
2023/03/30 06:36:56;;;;;;;;;;;;;;;15.40;61.75;97377.06;9787931;30;20497;-79
2023/03/30 06:42:18;;;;;;;12.88;3.95;;;;;;;13.73;65.60;97382.72;9788341;30;19958;-79
2023/03/30 06:47:57;;;;;;;13.02;4.47;;;;;;;12.81;66.93;97372.41;9803573;30;20061;-78
2023/03/30 06:53:19;;;;;;;7.50;3.70;;;;;;;12.74;68.27;97356.66;9787156;30;20045;-78
2023/03/30 06:58:41;;;;;;;10.27;4.20;;;;;;;13.84;69.33;97355.88;9791549;30;20080;-77
2023/03/30 07:04:03;;;;;;;6.05;3.35;;;;;;;17.57;64.54;97364.31;9783344;30;20087;-77
2023/03/30 07:09:43;;;;;;;7.57;3.28;;;;;;;15.98;61.12;97380.19;9786911;30;20072;-77
2023/03/30 07:15:06;;;;;;;6.82;3.42;;;;;;;15.12;62.31;97378.66;9784360;30;20501;-77
2023/03/30 07:20:28;;;;;;;6.55;3.70;;;;;;;15.57;62.87;97386.22;9784391;30;20048;-77
2023/03/30 07:26:00;;;;;;;10.70;5.15;;;;;;;18.58;60.47;97377.44;9777693;30;20138;-77
2023/03/30 07:31:30;;;;;;;9.55;3.88;;;;;;;20.05;55.50;97392.84;9778099;30;20072;-77
2023/03/30 07:36:53;;;;;;;11.82;3.72;;;;;;;23.78;54.68;97374.53;9775662;30;20144;-75
2023/03/30 07:42:19;;;;;;;8.02;3.42;;;;;;;25.04;42.19;97381.19;9776424;30;20101;-77
2023/03/30 07:47:40;;;;;;;7.90;3.60;;;;;;;21.79;44.50;97378.13;9787842;30;20076;-75
2023/03/30 07:53:01;;;;;;;9.18;3.42;;;;;;;19.03;47.39;97362.53;9788294;30;20523;-78
2023/03/30 07:58:22;;;;;;;8.23;3.15;;;;;;;16.88;49.14;97362.56;9776262;30;20048;-77
2023/03/30 08:03:47;;;;;;;9.65;2.72;;;;;;;15.28;51.21;97336.47;9791082;30;20131;-77
2023/03/30 08:09:09;;;;;;;8.77;3.30;;;;;;;14.44;53.02;97321.53;9783927;30;20073;-77
2023/03/30 08:14:31;;;;;;;7.38;2.88;;;;;;;14.06;53.35;97314.84;9783681;30;20048;-77
2023/03/30 08:19:51;;;;;;;10.15;2.90;;;;;;;14.53;54.27;97309.34;9783237;30;20134;-77
2023/03/30 08:25:12;;;;;;;8.13;3.05;;;;;;;14.29;53.54;97308.94;9798985;30;20065;-74
2023/03/30 08:30:33;;;;;;;15.32;3.88;;;;;;;14.08;54.89;97303.00;9784783;30;20052;-77
2023/03/30 08:35:54;;;;;;;11.45;2.67;;;;;;;14.72;55.64;97279.97;9795259;30;20076;-77
2023/03/30 08:41:43;;;;;;;9.75;2.67;;;;;;;15.37;55.71;97279.94;9793928;30;20068;-77
2023/03/30 08:47:09;;;;;;;9.63;2.60;;;;;;;15.64;54.73;97262.06;9793330;30;20087;-77
2023/03/30 08:52:29;;;;;;;8.77;2.40;;;;;;;15.96;54.75;97250.63;9781209;30;20121;-77
2023/03/30 08:58:08;;;;;;;13.68;3.58;;;;;;;15.92;54.99;97230.78;9781059;30;20087;-77
2023/03/30 09:03:33;;;;;;;9.60;2.17;;;;;;;15.84;54.67;97248.09;9806315;30;20075;-77
2023/03/30 09:08:53;;;;;;;11.80;2.50;;;;;;;15.28;55.77;97252.13;9781163;30;20509;-77
2023/03/30 09:14:36;;;;;;;10.10;2.60;;;;;;;14.70;57.22;97267.94;9781394;30;20147;-77
2023/03/30 09:20:05;;;;;;;12.30;2.80;;;;;;;14.36;57.79;97242.53;9781697;30;20049;-77
2023/03/30 09:25:39;;;;;;;14.60;2.88;;;;;;;13.96;59.36;97256.19;9781650;30;20056;-77
2023/03/30 09:31:03;;;;;;;10.93;2.33;;;;;;;13.80;60.90;97266.66;9793097;30;20460;-77
2023/03/30 09:36:38;;;;;;;12.48;2.80;;;;;;;13.55;61.98;97280.88;9793230;30;20084;-77
2023/03/30 09:42:37;;;;;;;13.30;2.70;;;;;;;13.25;65.67;97303.25;9778813;30;20110;-77
2023/03/30 09:48:07;;;;;;;15.55;3.15;;;;;;;13.06;66.33;97312.06;9755287;30;20523;-77
2023/03/30 09:53:28;;;;;;;13.23;3.20;;;;;;;12.89;66.32;97293.69;9756322;30;20123;-77
2023/03/30 09:58:49;;;;;;;17.25;4.03;;;;;;;12.78;69.23;97297.31;9773472;30;20088;-77
2023/03/30 10:04:11;;;;;;;14.05;3.58;;;;;;;12.67;69.98;97295.34;9768523;30;20056;-77
2023/03/30 10:09:32;;;;;;;11.27;2.95;;;;;;;12.48;70.03;97313.25;9780765;30;20083;-77
2023/03/30 10:15:00;;;;;;;14.63;3.55;;;;;;;12.35;73.69;97361.53;9774148;30;20048;-77
2023/03/30 10:20:29;;;;;;;15.80;3.20;;;;;;;12.14;75.95;97387.66;9788067;30;20048;-77
2023/03/30 10:25:50;;;;;;;11.43;3.03;;;;;;;12.01;77.87;97389.78;9787327;30;20060;-77
2023/03/30 10:31:15;;;;;;;12.40;3.78;;;;;;;11.92;76.96;97389.94;9787263;30;20055;-77
2023/03/30 10:36:39;;;;;;;12.00;3.90;;;;;;;11.84;79.22;97390.22;9811337;30;20123;-77
2023/03/30 10:42:00;;;;;;;10.63;3.92;;;;;;;11.72;78.63;97384.63;9775134;30;20055;-77
2023/03/30 10:47:42;;;;;;;13.48;3.65;;;;;;;11.65;79.65;97402.41;9782864;30;20099;-77
2023/03/30 10:53:21;;;;;;;13.63;3.20;;;;;;;11.62;80.36;97394.50;9795469;30;20070;-77
2023/03/30 10:59:01;;;;;;;7.10;2.30;;;;;;;11.70;81.21;97398.50;9786329;30;20412;-80
2023/03/30 11:04:36;;;;;;;7.93;1.65;;;;;;;11.86;83.14;97393.13;9793718;30;20497;-79
2023/03/30 11:10:02;;;;;;;7.68;2.05;;;;;;;11.99;82.04;97380.56;9814422;30;20060;-77
2023/03/30 11:15:30;;;;;;;3.95;1.10;;;;;;;12.14;82.10;97371.59;9786114;30;20068;-76
2023/03/30 11:20:54;;;;;;;6.25;1.50;;;;;;;12.17;82.15;97366.88;9782213;30;20471;-76
2023/03/30 11:26:54;;;;;;;4.75;1.48;;;;;;;12.18;82.57;97349.47;9786941;30;20064;-79
2023/03/30 11:32:36;;;;;;;6.57;1.65;;;;;;;12.15;81.95;97327.56;9797944;30;20052;-79
2023/03/30 11:38:13;;;;;;;8.30;1.85;;;;;;;11.95;82.00;97318.78;9780956;30;20501;-77
2023/03/30 11:43:34;;;;;;;7.82;2.08;;;;;;;11.91;85.53;97332.56;9817411;30;20085;-77
2023/03/30 11:49:15;;;;;;;5.65;1.63;;;;;;;11.98;85.36;97309.19;9808540;30;20056;-77
2023/03/30 11:54:37;;;;;;;5.95;2.10;;;;;;;12.06;85.39;97306.81;9831940;30;20076;-74
2023/03/30 12:00:08;;;;;;;4.05;2.00;;;;;;;12.20;84.91;97292.88;9827958;30;20078;-76
2023/03/30 12:05:35;;;;;;;5.65;1.23;;;;;;;12.50;83.55;97290.97;9815117;30;20068;-76
2023/03/30 12:11:01;;;;;;;6.75;1.67;;;;;;;12.78;83.39;97312.06;9816302;30;20048;-76
2023/03/30 12:16:53;;;;;;;3.38;1.40;;;;;;;13.12;82.92;97293.50;9804033;30;20052;-75
2023/03/30 12:22:25;;;;;;;2.10;0.98;;;;;;;13.37;82.10;97287.03;9810750;30;20087;-76
2023/03/30 12:28:15;;;;;;;4.47;1.00;;;;;;;13.66;81.77;97280.72;9798102;30;20071;-77
2023/03/30 12:33:47;;;;;;;4.30;1.30;;;;;;;13.91;80.05;97243.34;9817404;30;20071;-77
2023/03/30 12:39:18;;;;;;;1.93;1.00;;;;;;;14.03;79.52;97232.66;9806356;30;20048;-77
2023/03/30 12:44:47;;;;;;;4.90;1.30;;;;;;;14.10;79.19;97227.34;9808441;30;20052;-76
2023/03/30 12:50:30;;;;;;;2.85;1.23;;;;;;;14.33;78.72;97205.25;9819708;30;20052;-77
2023/03/30 12:56:03;;;;;;;4.80;1.77;;;;;;;15.14;77.41;97193.22;9829976;30;20059;-77
2023/03/30 13:01:54;;;;;;;3.00;0.77;;;;;;;15.59;73.75;97183.75;9815270;30;20116;-76
2023/03/30 13:07:21;;;;;;;1.52;0.70;;;;;;;15.79;74.22;97173.31;9826542;30;20056;-77
2023/03/30 13:12:48;;;;;;;3.15;0.88;;;;;;;15.50;72.99;97177.09;9792843;30;20129;-77
2023/03/30 13:18:08;;;;;;;1.85;0.63;;;;;;;14.87;72.96;97188.59;9812270;30;20067;-77
2023/03/30 13:23:34;;;;;;;3.53;1.00;;;;;;;14.62;73.30;97186.84;9838964;30;20059;-77
2023/03/30 13:29:06;;;;;;;2.50;0.63;;;;;;;14.60;73.37;97164.28;9814197;30;20060;-77
2023/03/30 13:34:43;;;;;;;4.57;0.88;;;;;;;14.89;73.33;97129.69;9829381;30;20048;-77
2023/03/30 13:40:22;;;;;;;1.73;0.63;;;;;;;15.09;72.50;97141.75;9816972;30;20044;-77
2023/03/30 13:46:26;;;;;;;2.60;0.80;;;;;;;15.14;71.90;97143.34;9815959;30;20044;-77
2023/03/30 13:51:47;;;;;;;2.17;0.60;;;;;;;15.35;71.20;97161.03;9817127;30;20056;-76
2023/03/30 13:57:16;;;;;;;1.55;0.43;;;;;;;15.16;70.97;97139.91;9803719;30;20052;-77
2023/03/30 14:02:45;;;;;;;1.33;0.60;;;;;;;14.94;71.28;97153.75;9810270;30;20424;-78
2023/03/30 14:14:27;;;;;;;1.15;0.45;;;;;;;14.52;71.35;97150.63;10394631;24;20585;-77
2023/03/30 14:20:08;;;;;;;2.35;0.60;;;;;;;14.28;71.11;97138.31;9794073;30;20052;-77
2023/03/30 14:44:20;;;;;;;2.78;1.08;;;;;;;13.61;74.26;97094.00;11940251;24;20127;-77
2023/03/30 14:49:42;;;;;;;4.22;0.85;;;;;;;13.63;73.29;97107.41;9758230;30;20041;-79
2023/03/30 14:55:05;;;;;;;1.58;0.57;;;;;;;13.75;73.40;97091.13;9799441;24;20076;-80
2023/03/30 15:38:33;;;;;;;3.03;1.48;;;;;;;15.26;66.22;97077.72;11894231;24;20027;-77
2023/03/30 15:44:07;;;;;;;4.07;1.17;;;;;;;15.10;65.49;97086.97;9762658;30;20417;-77
2023/03/30 15:49:42;;;;;;;6.13;1.75;;;;;;;15.16;65.57;97073.16;9771998;30;20545;-77
2023/03/30 15:55:13;;;;;;;2.50;1.38;;;;;;;15.16;65.81;97078.06;9759947;30;20045;-78
2023/03/30 16:00:34;;;;;;;4.32;1.35;;;;;;;15.16;65.50;97070.34;9761177;30;20049;-78
2023/03/30 16:05:55;;;;;;;5.82;1.27;;;;;;;15.17;65.04;97074.59;9757641;30;20520;-76
2023/03/30 16:11:19;;;;;;;3.85;1.33;;;;;;;15.10;64.23;97064.47;9746816;30;20064;-76
2023/03/30 16:16:39;;;;;;;;;;;;;;;14.92;63.65;97077.81;9757067;30;20127;-75
2023/03/30 16:22:09;;;;;;;6.40;1.90;;;;;;;14.88;64.49;97108.56;9758193;30;19950;-77
2023/03/30 16:27:45;;;;;;;4.35;1.63;;;;;;;14.75;63.92;97090.47;11848629;24;20027;-79
2023/03/30 16:33:35;;;;;;;5.97;1.80;;;;;;;14.50;64.28;97091.56;9794378;30;20075;-77
2023/03/30 16:38:56;;;;;;;8.15;1.70;;;;;;;14.34;64.27;97085.25;9784850;30;20056;-77
2023/03/30 16:44:17;;;;;;;6.47;1.88;;;;;;;14.19;64.23;97063.56;9792926;30;20060;-76
2023/03/30 16:49:39;;;;;;;6.03;2.20;;;;;;;14.07;64.10;97077.78;9780774;30;20056;-77
2023/03/30 16:54:59;;;;;;;6.85;1.83;;;;;;;13.94;64.21;97068.13;9784365;30;20060;-78
2023/03/30 17:00:29;;;;;;;6.95;2.25;;;;;;;13.88;64.31;97076.25;9767863;30;20060;-78
2023/03/30 17:05:50;;;;;;;5.78;1.33;;;;;;;13.69;64.39;97083.13;10216432;24;20073;-78
2023/03/30 17:11:12;;;;;;;6.57;1.70;;;;;;;13.55;64.80;97098.63;9804722;30;20052;-79
2023/03/30 17:16:33;;;;;;;5.50;1.60;;;;;;;13.37;65.07;97093.63;9789429;30;20484;-79
2023/03/30 17:21:54;;;;;;;6.45;2.05;;;;;;;13.21;65.97;97104.06;9789655;30;20052;-75
2023/03/30 17:27:15;;;;;;;4.10;1.67;;;;;;;13.09;66.26;97165.84;9786205;30;20080;-74
2023/03/30 17:32:36;;;;;;;1.88;0.40;;;;;;;12.91;63.45;97212.56;9773858;30;20462;-74
2023/03/30 17:37:58;;;;;;;2.63;0.28;;;;;;;12.51;64.52;97217.56;9808816;30;20075;-75
2023/03/30 17:43:20;;;;;;;1.40;0.20;;;;;;;11.93;65.20;97246.69;9807829;30;20404;-73
2023/03/30 17:48:44;;;;;;;3.70;0.40;;;;;;;11.23;66.41;97235.81;9787152;30;20136;-74
2023/03/30 17:54:07;;;;;;;2.83;0.30;;;;;;;10.99;68.61;97253.97;9790993;30;20044;-76
2023/03/30 17:59:28;;;;;;;1.75;0.20;;;;;;;10.87;69.73;97229.59;9807178;30;20048;-75
2023/03/30 18:04:49;;;;;;;1.95;0.20;;;;;;;10.72;71.18;97224.53;9790638;30;20501;-74
2023/03/30 18:10:34;;;;;;;4.07;0.30;;;;;;;10.53;71.67;97200.41;9798427;30;20132;-75
2023/03/30 18:15:57;;;;;;;1.83;0.40;;;;;;;10.48;71.30;97195.91;9785055;30;20111;-72
2023/03/30 18:21:19;;;;;;;1.30;0.40;;;;;;;10.47;71.74;97197.25;9785785;30;20465;-75
2023/03/30 18:26:41;;;;;;;1.33;0.30;;;;;;;10.48;72.18;97207.06;9773519;30;20056;-74
2023/03/30 18:32:02;;;;;;;1.20;0.28;;;;;;;10.46;71.93;97209.00;9787591;30;20048;-73
2023/03/30 18:37:23;;;;;;;1.13;0.40;;;;;;;10.40;72.22;97214.22;9792011;30;20108;-74
2023/03/30 18:42:44;;;;;;;2.22;0.60;;;;;;;10.36;72.60;97211.94;9780889;30;20124;-74
2023/03/30 18:48:06;;;;;;;3.65;0.40;;;;;;;10.29;72.26;97207.31;9794347;30;20057;-74
2023/03/30 18:53:27;;;;;;;2.53;0.63;;;;;;;10.20;73.20;97222.09;9795437;30;20086;-75
2023/03/30 18:58:49;;;;;;;3.70;1.00;;;;;;;10.15;73.81;97242.72;9779639;30;20068;-73
2023/03/30 19:04:10;;;;;;;3.55;0.30;;;;;;;9.96;73.75;97236.00;9803548;30;20060;-74
2023/03/30 19:09:31;;;;;;;4.03;0.60;;;;;;;9.93;74.24;97233.69;9803272;30;20083;-75
2023/03/30 19:15:04;;;;;;;3.65;1.00;;;;;;;9.88;74.10;97243.88;9792349;30;20064;-74
2023/03/30 19:20:25;;;;;;;2.83;0.90;;;;;;;9.78;74.44;97251.59;9790424;30;20052;-74
2023/03/30 19:25:47;;;;;;;2.05;0.80;;;;;;;9.63;74.93;97252.03;9789997;30;20055;-75
2023/03/30 19:31:12;;;;;;;4.68;1.17;;;;;;;9.46;75.82;97253.09;9790374;30;20071;-74
2023/03/30 19:36:33;;;;;;;3.83;0.90;;;;;;;9.31;76.30;97267.41;9790070;30;20076;-74
2023/03/30 19:41:54;;;;;;;2.42;0.75;;;;;;;9.16;76.21;97274.84;9777428;30;20060;-74
2023/03/30 19:47:14;;;;;;;2.47;0.90;;;;;;;9.06;76.75;97267.88;9776996;30;20068;-74
2023/03/30 19:52:36;;;;;;;6.32;0.88;;;;;;;8.98;76.99;97281.28;9801461;30;20060;-74
2023/03/30 19:57:57;;;;;;;3.97;0.90;;;;;;;8.85;76.76;97274.16;9777420;30;20084;-74
2023/03/30 20:03:18;;;;;;;3.35;0.80;;;;;;;8.79;77.40;97274.50;9788897;30;20093;-74
2023/03/30 20:08:39;;;;;;;1.75;0.63;;;;;;;8.87;77.09;97277.81;9771894;30;20507;-75
2023/03/30 20:13:59;;;;;;;1.40;0.38;;;;;;;8.87;76.90;97272.25;9769570;30;20465;-74
2023/03/30 20:19:21;;;;;;;1.60;0.50;;;;;;;8.98;75.95;97281.28;9785452;30;20505;-73
2023/03/30 20:24:49;;;;;;;1.75;0.45;;;;;;;9.06;75.99;97279.03;9780624;30;20098;-73
2023/03/30 20:30:10;;;;;;;4.20;0.50;;;;;;;9.07;76.10;97270.09;9799979;30;20079;-73
2023/03/30 20:35:31;;;;;;;5.18;0.70;;;;;;;9.06;76.14;97274.19;9787703;30;20076;-73
2023/03/30 20:40:54;;;;;;;2.50;1.02;;;;;;;8.98;76.25;97275.72;9787364;30;20072;-73
2023/03/30 20:46:17;;;;;;;1.92;0.70;;;;;;;8.97;76.59;97277.75;9787267;30;20079;-73
2023/03/30 20:51:37;;;;;;;2.25;0.57;;;;;;;9.00;76.23;97273.78;10566391;24;20540;-75
2023/03/30 20:57:00;;;;;;;2.00;0.50;;;;;;;8.99;76.49;97271.63;9777692;30;20079;-75
2023/03/30 21:02:21;;;;;;;1.98;0.50;;;;;;;8.96;76.80;97265.16;9808462;30;20040;-75
2023/03/30 21:07:45;;;;;;;2.40;0.50;;;;;;;8.97;76.69;97263.09;9759427;30;20102;-77
2023/03/30 21:13:06;;;;;;;1.17;0.50;;;;;;;8.96;76.51;97247.72;9772720;30;20453;-75
2023/03/30 21:18:27;;;;;;;2.45;0.57;;;;;;;8.94;76.66;97264.31;9794450;30;21374;-75
2023/03/30 21:23:48;;;;;;;3.83;0.85;;;;;;;8.89;77.02;97266.09;9769329;30;20116;-76
2023/03/30 21:29:12;;;;;;;2.13;0.80;;;;;;;8.84;77.09;97262.31;9768355;30;20450;-75
2023/03/30 21:34:33;;;;;;;3.27;0.80;;;;;;;8.82;77.40;97267.75;9766989;30;20404;-75
2023/03/30 21:39:54;;;;;;;2.95;1.00;;;;;;;8.82;77.36;97264.97;9768147;30;20196;-75
2023/03/30 21:45:16;;;;;;;4.63;1.13;;;;;;;8.76;77.08;97261.75;9778281;30;20144;-75
2023/03/30 21:50:37;;;;;;;2.38;0.63;;;;;;;8.80;77.93;97264.09;9783090;30;20064;-75
2023/03/30 21:55:58;;;;;;;3.85;0.50;;;;;;;8.99;77.43;97266.03;9770901;30;20052;-75
2023/03/30 22:01:19;;;;;;;1.88;0.50;;;;;;;9.04;77.47;97259.41;9768317;30;20079;-76
2023/03/30 22:06:40;;;;;;;3.55;0.82;;;;;;;9.07;77.23;97258.19;9769749;30;20107;-75
2023/03/30 22:12:01;;;;;;;2.00;0.40;;;;;;;9.01;76.96;97260.59;9770227;30;20056;-75
2023/03/30 22:17:33;;;;;;;2.83;0.60;;;;;;;8.94;77.51;97253.16;9761134;30;20124;-75
2023/03/30 22:22:57;;;;;;;2.20;0.57;;;;;;;8.89;77.74;97252.19;9774332;30;20048;-75
2023/03/30 22:28:18;;;;;;;3.83;0.50;;;;;;;8.87;77.96;97238.84;9773961;30;20516;-74
2023/03/30 22:33:39;;;;;;;1.15;0.40;;;;;;;8.85;78.11;97238.72;9785708;30;20060;-75
2023/03/30 22:39:00;;;;;;;2.72;0.60;;;;;;;8.84;77.67;97239.31;9773360;30;20134;-75
2023/03/30 22:44:21;;;;;;;3.67;1.30;;;;;;;8.77;78.29;97243.00;9762149;30;20060;-75
2023/03/30 22:49:42;;;;;;;5.30;1.10;;;;;;;8.66;79.12;97238.84;9761925;30;20049;-75
2023/03/30 22:55:04;;;;;;;2.55;1.00;;;;;;;8.58;78.75;97236.22;9762332;30;20091;-75
2023/03/30 23:00:25;;;;;;;2.63;1.10;;;;;;;8.53;79.70;97239.34;9780272;30;20152;-75
2023/03/30 23:05:50;;;;;;;1.67;0.70;;;;;;;8.52;79.49;97229.56;9790416;30;20053;-75
2023/03/30 23:11:12;;;;;;;5.03;1.20;;;;;;;8.53;79.64;97233.78;9772313;30;20083;-75
2023/03/30 23:16:34;;;;;;;2.70;1.27;;;;;;;8.52;79.34;97224.72;9772009;30;20093;-74
2023/03/30 23:21:55;;;;;;;4.07;1.55;;;;;;;8.55;80.17;97231.16;9765606;30;20052;-75
2023/03/30 23:27:16;;;;;;;3.30;1.13;;;;;;;8.63;79.88;97215.00;9777772;30;20522;-74
2023/03/30 23:32:37;;;;;;;4.07;1.08;;;;;;;8.72;80.37;97214.22;9790237;30;20405;-74
2023/03/30 23:37:58;;;;;;;1.77;0.93;;;;;;;8.82;79.53;97205.78;9789555;30;20578;-75
2023/03/30 23:43:19;;;;;;;4.03;1.42;;;;;;;8.81;79.55;97201.56;9777584;30;20056;-75
2023/03/30 23:48:40;;;;;;;1.90;0.98;;;;;;;8.65;79.73;97215.13;9777168;30;20052;-75
2023/03/30 23:54:07;;;;;;;3.33;1.25;;;;;;;8.53;79.69;97205.97;9789369;30;20072;-75
2023/03/30 23:59:28;;;;;;;2.58;1.15;;;;;;;8.41;80.37;97194.78;9778317;30;20464;-74
